CDT,Max TemperatureF,Mean TemperatureF,Min TemperatureF,Max Dew PointF,MeanDew PointF,Min DewpointF,Max Humidity, Mean Humidity, Min Humidity, Max Sea Level PressureIn, Mean Sea Level PressureIn, Min Sea Level PressureIn, Max VisibilityMiles, Mean VisibilityMiles, Min VisibilityMiles, Max Wind SpeedMPH, Mean Wind SpeedMPH, Max Gust SpeedMPH,PrecipitationIn, CloudCover, Events, WindDirDegrees
2013-8-1,75,62,50,55,52,48,94,70,44,30.00,29.96,29.88,10,10,10,16,5,22,0.00,2,,270
2013-8-2,75,63,51,59,53,48,94,69,38,30.02,29.91,29.84,10,10,10,13,4,20,0.00,1,,328
2013-8-3,73,60,48,54,49,46,94,68,41,30.19,30.10,30.02,10,10,10,14,3,18,0.00,2,,320
2013-8-4,73,58,44,54,49,45,100,71,38,30.26,30.18,30.08,10,10,5,6,1,,0.00,2,,185
2013-8-5,71,61,51,64,58,48,94,86,69,30.08,29.94,29.84,10,10,7,16,4,20,0.00,7,Rain,185
2013-8-6,76,68,59,63,59,53,100,77,44,29.86,29.75,29.58,10,7,1,20,6,38,0.39,5,Rain-Thunderstorm,219
2013-8-7,72,60,47,59,55,47,99,79,45,29.93,29.79,29.63,10,9,0,13,6,18,0.00,4,Fog,330
2013-8-8,73,58,42,54,49,42,100,73,40,29.97,29.93,29.89,10,8,0,8,2,,0.00,1,Fog,235
2013-8-9,73,62,52,57,51,47,99,67,42,30.00,29.91,29.87,10,10,7,14,4,21,0.00,4,,309
2013-8-10,69,59,49,53,51,47,99,72,45,30.07,30.04,30.00,10,10,3,8,3,,0.00,6,,294
2013-8-11,73,60,48,58,54,48,99,78,50,30.03,29.97,29.92,10,9,0,9,1,,0.00,3,Fog,214
2013-8-12,76,62,47,60,54,46,100,76,40,29.97,29.90,29.85,10,8,0,16,4,33,0.06,4,Fog-Rain,336
2013-8-13,67,54,41,49,44,40,99,73,43,30.04,30.00,29.97,10,10,2,15,4,21,0.00,2,,353
2013-8-14,70,53,36,48,43,36,99,73,36,30.22,30.17,30.14,10,9,0,14,3,17,0.00,2,Fog,332
2013-8-15,75,58,43,54,49,43,99,69,39,30.16,30.13,30.10,10,10,1,12,2,16,0.00,4,,288
2013-8-16,77,61,45,57,52,45,100,73,41,30.21,30.18,30.15,10,9,0,9,1,,0.00,3,Fog,268
2013-8-17,80,63,47,56,52,47,99,69,37,30.26,30.21,30.16,10,9,0,12,2,16,0.00,1,Fog,215
2013-8-18,79,62,46,57,53,47,100,70,38,30.21,30.15,30.08,10,9,0,14,3,22,0.00,0,Fog,210
2013-8-19,79,68,58,63,59,54,86,73,55,30.08,30.04,29.99,10,10,10,15,7,21,0.00,1,,217
2013-8-20,85,74,63,67,64,60,90,73,53,30.03,29.99,29.95,10,10,7,18,9,24,0.00,5,,194
2013-8-21,86,73,59,70,66,59,100,80,55,30.05,29.96,29.90,10,9,0,25,9,33,0.87,2,Fog-Rain-Thunderstorm,210
2013-8-22,79,67,55,61,55,50,100,73,38,30.17,30.11,30.04,10,8,0,8,3,,0.00,2,Fog,18
2013-8-23,79,64,50,62,56,50,97,73,50,30.21,30.17,30.13,10,10,10,10,6,,0.00,2,,140
2013-8-24,80,69,58,68,60,52,91,74,50,30.23,30.17,30.08,10,10,10,17,8,25,0.02,3,Rain,165
2013-8-25,89,79,69,72,69,66,91,75,54,30.12,30.07,30.02,10,10,7,17,12,30,0.01,1,Rain-Thunderstorm,206
2013-8-26,86,76,67,76,71,66,98,83,66,30.13,30.02,29.94,10,9,1,16,7,18,1.85,4,Rain-Thunderstorm,193
2013-8-27,85,78,70,76,73,70,99,87,69,29.95,29.89,29.84,10,8,0,9,4,,0.02,4,Fog-Rain,326
2013-8-28,82,74,67,71,67,62,100,83,52,30.08,30.03,29.94,10,6,0,7,2,,0.00,4,Fog,89
2013-8-29,84,74,64,73,68,63,99,84,62,30.10,30.04,29.93,10,9,2,26,4,33,0.05,3,Rain-Thunderstorm,150
2013-8-30,79,70,60,72,66,59,97,82,59,29.95,29.90,29.84,10,9,4,14,8,20,0.00,4,Rain,25
2013-8-31,79,66,53,64,60,53,99,83,58,29.94,29.89,29.80,10,9,0,8,3,,0.00,0,Fog,130